Time;durP1;ratioP1;P1;durP2;ratioP2;P2;SDS_P1;SDS_P2;PMS_P1;PMS_P2;Temp;Humidity;BMP_temperature;BMP_pressure;BME280_temperature;BME280_humidity;BME280_pressure;Samples;Min_cycle;Max_cycle;Signal;HPM_P1;HPM_P2
2023/06/02 00:02:22;;;;;;;15.57;11.07;;;;;;;15.99;nan;100277.19;5058048;28;20025;-76
2023/06/02 00:04:49;;;;;;;17.17;10.35;;;;;;;15.93;nan;100271.06;5037229;28;20052;-76
2023/06/02 00:07:15;;;;;;;13.60;10.65;;;;;;;16.04;nan;100290.47;5058807;28;20025;-76
2023/06/02 00:09:42;;;;;;;16.52;11.15;;;;;;;16.03;nan;100288.88;5058044;28;20025;-76
2023/06/02 00:12:10;;;;;;;15.20;10.02;;;;;;;15.98;nan;100283.56;5055353;28;20115;-75
2023/06/02 00:14:42;;;;;;;13.40;9.95;;;;;;;15.90;nan;100280.38;5055697;28;20025;-76
2023/06/02 00:17:07;;;;;;;13.00;9.52;;;;;;;15.80;nan;100263.59;5057348;28;20017;-76
2023/06/02 00:19:33;;;;;;;16.50;9.20;;;;;;;15.71;nan;100266.00;5056765;28;20066;-75
2023/06/02 00:22:01;;;;;;;14.18;8.63;;;;;;;15.67;nan;100262.22;5054958;28;20024;-76
2023/06/02 00:24:27;;;;;;;17.52;9.18;;;;;;;15.64;nan;100257.44;5054406;28;20036;-76
2023/06/02 00:26:52;;;;;;;15.35;9.10;;;;;;;15.74;nan;100271.56;5056867;28;21032;-75
2023/06/02 00:29:18;;;;;;;18.85;9.48;;;;;;;15.71;nan;100266.78;5056311;28;20025;-75
2023/06/02 00:31:43;;;;;;;16.08;9.18;;;;;;;15.73;nan;100261.22;5044004;28;20118;-75
2023/06/02 00:34:09;;;;;;;14.30;8.85;;;;;;;15.62;nan;100248.94;5056985;28;20029;-76
2023/06/02 00:36:34;;;;;;;17.67;8.77;;;;;;;15.33;nan;100217.56;5057431;28;20683;-75
2023/06/02 00:39:00;;;;;;;16.92;8.40;;;;;;;15.52;nan;100268.28;5053519;28;20649;-75
2023/06/02 00:41:25;;;;;;;15.55;8.77;;;;;;;15.39;nan;100245.69;5052859;28;20033;-76
2023/06/02 00:43:51;;;;;;;15.77;8.52;;;;;;;15.31;nan;100243.53;5044142;28;20036;-76
2023/06/02 00:46:17;;;;;;;17.60;8.75;;;;;;;15.29;nan;100250.97;5054256;28;20052;-76
2023/06/02 00:48:43;;;;;;;16.42;8.63;;;;;;;15.27;nan;100247.75;5056212;28;20051;-73
2023/06/02 00:51:08;;;;;;;14.57;8.60;;;;;;;15.35;nan;100255.25;5055543;28;20107;-73
2023/06/02 00:53:34;;;;;;;15.50;9.00;;;;;;;15.27;nan;100245.09;5041624;28;20482;-74
2023/06/02 00:56:00;;;;;;;14.88;8.82;;;;;;;15.41;nan;100266.66;5057354;28;20506;-74
2023/06/02 00:58:26;;;;;;;15.73;8.50;;;;;;;15.35;nan;100259.72;5058736;28;20538;-74
2023/06/02 01:00:52;;;;;;;13.75;8.57;;;;;;;15.29;nan;100246.44;5061672;28;20020;-73
2023/06/02 01:03:21;;;;;;;18.00;8.75;;;;;;;15.32;nan;100253.91;5059041;28;20082;-73
2023/06/02 01:05:48;;;;;;;14.77;8.70;;;;;;;15.42;nan;100265.59;5062197;28;20025;-74
2023/06/02 01:08:16;;;;;;;12.65;8.30;;;;;;;15.34;nan;100252.81;5058809;28;20028;-73
2023/06/02 01:10:41;;;;;;;15.82;8.48;;;;;;;15.32;nan;100250.44;5059832;28;20882;-72
2023/06/02 01:13:07;;;;;;;19.35;8.70;;;;;;;15.34;nan;100258.94;5058500;28;20155;-73
2023/06/02 01:15:33;;;;;;;15.90;8.85;;;;;;;15.28;nan;100239.56;5060374;28;20356;-73
2023/06/02 01:17:59;;;;;;;16.13;8.15;;;;;;;15.36;nan;100238.25;5044748;28;20025;-73
2023/06/02 01:20:26;;;;;;;15.30;8.57;;;;;;;15.30;nan;100237.44;5043450;28;20029;-73
2023/06/02 01:23:01;;;;;;;11.80;8.45;;;;;;;15.25;nan;100233.94;5057966;28;20438;-73
2023/06/02 01:25:28;;;;;;;18.83;8.43;;;;;;;15.28;nan;100238.75;5060709;28;20029;-73
2023/06/02 01:27:57;;;;;;;13.70;8.35;;;;;;;15.29;nan;100243.78;5059334;28;20032;-73
2023/06/02 01:30:23;;;;;;;11.45;7.93;;;;;;;15.29;nan;100243.78;5058678;28;20025;-73
2023/06/02 01:33:20;;;;;;;12.68;8.20;;;;;;;15.21;nan;100236.34;5061969;28;20029;-73
2023/06/02 01:35:54;;;;;;;13.98;8.00;;;;;;;15.06;nan;100221.16;5048056;28;20047;-74
2023/06/02 01:38:21;;;;;;;12.95;8.07;;;;;;;15.01;nan;100229.09;5057552;28;20035;-73
2023/06/02 01:40:47;;;;;;;13.75;7.93;;;;;;;15.06;nan;100237.06;5056720;28;20158;-73
2023/06/02 01:43:14;;;;;;;17.08;8.32;;;;;;;15.01;nan;100230.94;5058329;28;20099;-73
2023/06/02 01:45:41;;;;;;;13.85;7.82;;;;;;;15.07;nan;100241.31;5059656;28;20054;-73
2023/06/02 01:48:08;;;;;;;20.08;7.80;;;;;;;15.00;nan;100227.50;5040439;28;20035;-73
2023/06/02 01:50:35;;;;;;;15.20;8.30;;;;;;;15.00;nan;100230.16;5057697;28;20055;-75
2023/06/02 01:53:01;;;;;;;13.32;7.63;;;;;;;15.06;nan;100242.38;5046413;28;20127;-76
2023/06/02 01:55:27;;;;;;;13.45;7.53;;;;;;;15.02;nan;100230.69;5060703;28;20107;-76
2023/06/02 01:57:52;;;;;;;13.88;8.38;;;;;;;15.07;nan;100243.97;5054719;28;20631;-76
2023/06/02 02:00:19;;;;;;;14.75;7.80;;;;;;;15.01;nan;100239.72;5047543;28;20020;-76
2023/06/02 02:02:45;;;;;;;13.35;7.45;;;;;;;14.91;nan;100226.38;5057123;28;20505;-76
2023/06/02 02:05:11;;;;;;;11.82;6.90;;;;;;;14.97;nan;100243.13;5042302;28;20029;-75
2023/06/02 02:07:37;;;;;;;10.98;6.55;;;;;;;14.84;nan;100237.25;5046176;28;20476;-76
2023/06/02 02:10:03;;;;;;;17.60;7.15;;;;;;;14.75;nan;100228.16;5054982;28;20033;-76
2023/06/02 02:12:29;;;;;;;10.43;6.18;;;;;;;14.81;nan;100242.25;5058324;28;20029;-76
2023/06/02 02:14:56;;;;;;;14.15;6.90;;;;;;;14.68;nan;100228.41;5058350;28;20058;-76
2023/06/02 02:17:26;;;;;;;12.82;6.32;;;;;;;14.74;nan;100242.47;5058183;28;20082;-75
2023/06/02 02:19:55;;;;;;;14.32;6.55;;;;;;;14.43;nan;100204.34;5059074;28;20085;-75
2023/06/02 02:22:24;;;;;;;12.23;6.88;;;;;;;14.56;nan;100229.66;5041353;28;20155;-75
2023/06/02 02:24:50;;;;;;;10.33;6.20;;;;;;;14.54;nan;100229.91;5044669;28;20028;-76
2023/06/02 02:27:16;;;;;;;10.18;6.68;;;;;;;14.51;nan;100225.09;5058033;28;20056;-75
2023/06/02 02:29:41;;;;;;;12.73;6.57;;;;;;;14.56;nan;100229.66;5055682;28;20056;-76
2023/06/02 02:32:07;;;;;;;15.57;6.90;;;;;;;14.62;nan;100252.47;5055566;28;20020;-76
2023/06/02 02:34:33;;;;;;;12.00;5.60;;;;;;;14.55;nan;100236.78;5056234;28;20500;-75
2023/06/02 02:37:01;;;;;;;13.50;5.80;;;;;;;14.54;nan;100237.06;5057776;28;20054;-76
2023/06/02 02:39:29;;;;;;;13.53;6.80;;;;;;;14.53;nan;100246.78;5057402;28;20021;-75
2023/06/02 02:41:55;;;;;;;10.90;6.72;;;;;;;14.51;nan;100235.69;5042607;28;20270;-76
2023/06/02 02:44:21;;;;;;;10.20;6.50;;;;;;;14.47;nan;100235.38;5041905;28;20020;-76
2023/06/02 02:46:46;;;;;;;13.55;5.88;;;;;;;14.35;nan;100216.22;5062552;28;20033;-77
2023/06/02 02:49:12;;;;;;;11.43;6.18;;;;;;;14.39;nan;100219.13;5058410;28;20474;-76
2023/06/02 02:51:37;;;;;;;17.75;6.70;;;;;;;14.47;nan;100230.06;5056327;28;20135;-76
2023/06/02 02:54:03;;;;;;;13.48;6.30;;;;;;;14.41;nan;100222.34;5060401;28;20486;-75
2023/06/02 02:56:30;;;;;;;13.27;6.43;;;;;;;14.38;nan;100225.50;5057994;28;20041;-75
2023/06/02 02:58:57;;;;;;;13.15;6.72;;;;;;;14.36;nan;100214.34;5058253;28;20643;-73
2023/06/02 03:01:24;;;;;;;10.27;5.90;;;;;;;14.38;nan;100220.22;5058476;28;20170;-73
2023/06/02 03:03:50;;;;;;;11.50;6.40;;;;;;;14.41;nan;100225.00;5047573;28;20028;-73
2023/06/02 03:06:18;;;;;;;11.73;6.00;;;;;;;14.25;nan;100206.34;5039231;28;20103;-74
2023/06/02 03:08:46;;;;;;;13.48;6.03;;;;;;;14.32;nan;100231.81;5041681;28;20025;-74
2023/06/02 03:11:13;;;;;;;13.57;6.03;;;;;;;14.19;nan;100219.81;5047629;28;20484;-72
2023/06/02 03:13:38;;;;;;;11.98;6.05;;;;;;;14.26;nan;100230.97;5047146;28;20025;-73
2023/06/02 03:16:04;;;;;;;17.08;6.82;;;;;;;14.26;nan;100226.47;5061616;28;20035;-73
2023/06/02 03:18:30;;;;;;;15.40;6.38;;;;;;;14.23;nan;100229.63;5055403;28;20028;-74
2023/06/02 03:20:58;;;;;;;12.52;5.60;;;;;;;14.29;nan;100241.06;5057178;28;20032;-73
2023/06/02 03:23:25;;;;;;;12.43;5.85;;;;;;;13.96;nan;100200.56;5055184;28;20032;-74
2023/06/02 03:25:51;;;;;;;8.82;6.10;;;;;;;14.18;nan;100240.19;5040563;28;20111;-74
2023/06/02 03:28:18;;;;;;;12.70;5.75;;;;;;;14.14;nan;100227.72;5055808;28;20039;-74
2023/06/02 03:30:43;;;;;;;13.38;5.70;;;;;;;14.20;nan;100230.16;5061632;28;20032;-73
2023/06/02 03:33:09;;;;;;;10.48;5.57;;;;;;;14.16;nan;100229.06;5056916;28;20025;-73
2023/06/02 03:35:34;;;;;;;11.88;5.68;;;;;;;14.17;nan;100237.78;5058933;28;20403;-74
2023/06/02 03:38:00;;;;;;;11.43;5.60;;;;;;;14.17;nan;100241.22;5056296;28;20055;-74
2023/06/02 03:40:25;;;;;;;15.85;5.68;;;;;;;14.30;nan;100253.28;5059046;28;20387;-73
2023/06/02 03:42:50;;;;;;;11.05;6.05;;;;;;;14.26;nan;100247.66;5055939;28;20037;-73
2023/06/02 03:45:16;;;;;;;10.35;5.97;;;;;;;14.23;nan;100236.78;5055055;28;20028;-72
2023/06/02 03:47:41;;;;;;;8.70;5.35;;;;;;;14.33;nan;100247.47;5056378;28;20029;-72
2023/06/02 03:50:07;;;;;;;13.93;6.35;;;;;;;14.37;nan;100242.47;5057748;28;20083;-72
2023/06/02 03:52:32;;;;;;;10.77;5.75;;;;;;;14.76;nan;100296.03;5056801;28;20051;-72
2023/06/02 03:54:58;;;;;;;10.35;6.07;;;;;;;14.46;nan;100235.63;5039673;28;20028;-72
2023/06/02 03:57:23;;;;;;;18.38;6.60;;;;;;;14.60;nan;100255.34;5055156;28;20380;-72
2023/06/02 03:59:49;;;;;;;14.07;7.18;;;;;;;14.58;nan;100236.28;5056906;28;20070;-72
2023/06/02 04:02:14;;;;;;;11.98;6.13;;;;;;;14.66;nan;100250.91;5040499;28;20487;-72
2023/06/02 04:04:41;;;;;;;13.10;6.60;;;;;;;14.61;nan;100233.13;5057546;28;20032;-72
2023/06/02 04:07:07;;;;;;;8.70;5.70;;;;;;;14.59;nan;100227.28;5057636;28;20025;-71
2023/06/02 04:09:34;;;;;;;11.48;5.65;;;;;;;14.71;nan;100239.53;5055810;28;20089;-73
2023/06/02 04:11:59;;;;;;;10.75;5.45;;;;;;;14.64;nan;100237.91;5045882;28;20039;-72
2023/06/02 04:14:25;;;;;;;10.77;5.38;;;;;;;14.73;nan;100237.44;5056396;28;20541;-73
2023/06/02 04:16:50;;;;;;;9.05;6.28;;;;;;;14.82;nan;100243.81;5055341;28;20029;-72
2023/06/02 04:19:15;;;;;;;12.27;6.47;;;;;;;14.89;nan;100239.09;5056404;28;20025;-71
2023/06/02 04:21:41;;;;;;;9.38;5.65;;;;;;;15.06;nan;100246.88;5056038;28;20137;-72
2023/06/02 04:24:06;;;;;;;12.20;5.85;;;;;;;15.07;nan;100241.31;5059083;28;20035;-72
2023/06/02 04:26:31;;;;;;;8.73;6.50;;;;;;;15.12;nan;100232.59;5044940;28;20044;-73
2023/06/02 04:28:57;;;;;;;7.97;5.47;;;;;;;15.18;nan;100241.34;5044234;28;20087;-73
2023/06/02 04:31:39;;;;;;;10.63;6.07;;;;;;;15.28;nan;100246.72;5056220;28;20052;-72
2023/06/02 04:34:05;;;;;;;18.05;5.68;;;;;;;15.29;nan;100245.66;5060877;28;20048;-73
2023/06/02 04:36:30;;;;;;;9.07;5.97;;;;;;;15.41;nan;100253.38;5061091;28;20028;-72
2023/06/02 04:38:57;;;;;;;8.27;5.40;;;;;;;15.48;nan;100256.59;5063682;28;20033;-72
2023/06/02 04:41:22;;;;;;;9.88;5.90;;;;;;;15.57;nan;100252.38;5060135;28;20025;-72
2023/06/02 04:43:48;;;;;;;9.48;5.72;;;;;;;15.57;nan;100239.09;5061489;28;20036;-72
2023/06/02 04:46:13;;;;;;;11.63;5.90;;;;;;;15.66;nan;100242.06;5059477;28;20027;-71
2023/06/02 04:48:42;;;;;;;13.20;5.65;;;;;;;15.68;nan;100234.59;5060566;28;20044;-72
2023/06/02 04:51:07;;;;;;;8.88;5.72;;;;;;;15.79;nan;100246.88;5060063;28;20024;-71
2023/06/02 04:53:32;;;;;;;9.00;5.57;;;;;;;15.95;nan;100250.38;5061318;28;20039;-69
2023/06/02 04:55:58;;;;;;;9.10;5.72;;;;;;;16.03;nan;100243.72;5059388;28;20049;-73
2023/06/02 04:58:24;;;;;;;10.40;5.45;;;;;;;16.10;nan;100237.09;5048040;28;20035;-73
2023/06/02 05:00:49;;;;;;;6.97;5.15;;;;;;;16.13;nan;100243.72;5057054;28;20163;-73
2023/06/02 05:03:15;;;;;;;9.98;5.88;;;;;;;16.13;nan;100233.09;5056167;28;20020;-73
2023/06/02 05:05:40;;;;;;;9.10;5.93;;;;;;;16.30;nan;100246.09;5059858;28;20094;-73
2023/06/02 05:08:06;;;;;;;8.75;5.32;;;;;;;16.40;nan;100267.38;5059518;28;20064;-73
2023/06/02 05:10:31;;;;;;;11.57;5.30;;;;;;;16.52;nan;100264.44;5062164;28;20047;-73
2023/06/02 05:12:56;;;;;;;8.98;5.60;;;;;;;16.57;nan;100256.47;5044280;28;20398;-74
2023/06/02 05:15:22;;;;;;;12.52;6.05;;;;;;;16.60;nan;100247.94;5045037;28;20028;-73
2023/06/02 05:17:47;;;;;;;8.85;5.80;;;;;;;16.71;nan;100251.38;5058512;28;20021;-73
2023/06/02 05:20:12;;;;;;;8.80;5.57;;;;;;;16.82;nan;100252.19;5061028;28;20047;-73
2023/06/02 05:22:38;;;;;;;11.23;5.35;;;;;;;16.89;nan;100269.47;5048725;28;20039;-73
2023/06/02 05:25:04;;;;;;;7.28;5.15;;;;;;;16.89;nan;100256.16;5060755;28;20032;-74
2023/06/02 05:27:30;;;;;;;12.80;6.82;;;;;;;17.04;nan;100268.63;5058764;28;20028;-74
2023/06/02 05:29:55;;;;;;;11.55;5.55;;;;;;;17.10;nan;100266.75;5058380;28;20024;-73
2023/06/02 05:32:24;;;;;;;8.15;5.10;;;;;;;17.12;nan;100265.41;5058868;28;20584;-73
2023/06/02 05:34:50;;;;;;;11.45;5.78;;;;;;;17.15;nan;100264.06;5060231;28;20360;-73
2023/06/02 05:37:15;;;;;;;8.00;5.30;;;;;;;17.22;nan;100259.25;5059547;28;20111;-73
2023/06/02 05:39:41;;;;;;;10.05;5.55;;;;;;;17.32;nan;100264.53;5060260;28;20167;-73
2023/06/02 05:42:07;;;;;;;11.23;5.80;;;;;;;17.47;nan;100271.63;5059836;28;20056;-74
2023/06/02 05:44:32;;;;;;;9.52;5.03;;;;;;;17.53;nan;100259.13;5056627;28;20032;-73
2023/06/02 05:46:58;;;;;;;12.20;5.78;;;;;;;17.69;nan;100267.81;5044534;28;20089;-73
2023/06/02 05:49:23;;;;;;;8.77;5.63;;;;;;;17.68;nan;100250.25;5045611;28;20024;-73
2023/06/02 05:51:48;;;;;;;9.02;5.45;;;;;;;;;;5060604;28;20032;-73
2023/06/02 05:54:14;;;;;;;8.23;5.53;;;;;;;;;;5056997;28;20021;-73
2023/06/02 05:56:39;;;;;;;6.00;5.03;;;;;;;;;;5057087;28;20054;-73
2023/06/02 05:59:05;;;;;;;9.18;5.13;;;;;;;;;;5056407;28;20039;-73
2023/06/02 06:01:30;;;;;;;15.63;5.95;;;;;;;;;;5059864;28;20075;-73
2023/06/02 06:03:55;;;;;;;10.10;5.85;;;;;;;;;;5059524;28;20611;-73
2023/06/02 06:06:21;;;;;;;9.40;5.50;;;;;;;;;;5057581;28;20029;-72
2023/06/02 06:08:46;;;;;;;8.37;5.70;;;;;;;18.46;nan;100172.88;5060809;28;20482;-72
2023/06/02 06:11:12;;;;;;;9.07;5.22;;;;;;;;;;5047462;28;20285;-71
2023/06/02 06:13:37;;;;;;;10.13;5.88;;;;;;;;;;5053998;28;20043;-73
2023/06/02 06:16:03;;;;;;;8.73;5.40;;;;;;;;;;5057923;28;20033;-70
2023/06/02 06:18:28;;;;;;;9.48;5.40;;;;;;;;;;5057349;28;20052;-70
2023/06/02 06:20:53;;;;;;;9.90;5.83;;;;;;;;;;5058860;28;22002;-71
2023/06/02 06:23:19;;;;;;;14.95;5.50;;;;;;;;;;5058437;28;20312;-71
2023/06/02 06:25:44;;;;;;;11.32;5.80;;;;;;;19.11;nan;100225.00;5060653;28;20171;-71
2023/06/02 06:28:10;;;;;;;11.90;6.13;;;;;;;19.23;nan;100230.72;5047208;28;20076;-71
2023/06/02 06:30:35;;;;;;;10.00;5.60;;;;;;;19.34;nan;100208.13;5058817;28;20048;-71
2023/06/02 06:33:01;;;;;;;7.63;5.38;;;;;;;19.36;nan;100218.53;5039615;28;20483;-70
2023/06/02 06:35:26;;;;;;;7.40;5.85;;;;;;;19.45;nan;100237.38;5039642;28;20024;-71
2023/06/02 06:37:52;;;;;;;9.25;5.72;;;;;;;19.49;nan;100227.69;5060108;28;20021;-71
2023/06/02 06:40:17;;;;;;;10.90;5.35;;;;;;;19.45;nan;100208.00;5057242;28;20075;-73
2023/06/02 06:42:42;;;;;;;9.40;5.57;;;;;;;;;;5055189;28;20478;-72
2023/06/02 06:45:08;;;;;;;8.90;5.43;;;;;;;19.63;nan;100241.13;5055496;28;20486;-72
2023/06/02 06:47:33;;;;;;;7.10;5.30;;;;;;;19.70;nan;100199.63;5059254;28;20371;-72
2023/06/02 06:49:59;;;;;;;11.98;5.00;;;;;;;19.80;nan;100209.41;5056895;28;20030;-73
2023/06/02 06:52:25;;;;;;;11.43;6.10;;;;;;;19.92;nan;100201.72;5058599;28;20078;-73
2023/06/02 06:54:50;;;;;;;10.07;5.35;;;;;;;20.03;nan;100164.91;5056111;28;20036;-73
2023/06/02 06:57:16;;;;;;;7.57;5.30;;;;;;;;;;5056058;28;20044;-74
2023/06/02 06:59:44;;;;;;;9.60;5.05;;;;;;;20.33;nan;100217.06;5057012;28;20056;-73
2023/06/02 07:02:10;;;;;;;6.90;5.43;;;;;;;20.41;nan;100218.25;5057426;28;20020;-73
2023/06/02 07:04:36;;;;;;;10.48;5.60;;;;;;;20.44;nan;100188.25;5058653;28;20037;-73
2023/06/02 07:07:01;;;;;;;9.18;5.40;;;;;;;;;;5041443;28;20106;-73
2023/06/02 07:09:26;;;;;;;13.48;5.90;;;;;;;20.58;nan;100178.38;5056348;28;20735;-71
2023/06/02 07:11:52;;;;;;;9.23;5.53;;;;;;;20.65;nan;100206.63;5058935;28;20031;-71
2023/06/02 07:14:17;;;;;;;9.93;5.25;;;;;;;20.62;nan;100217.94;5057085;28;20382;-72
2023/06/02 07:16:46;;;;;;;9.50;5.72;;;;;;;20.76;nan;100200.78;5042875;28;20099;-71
2023/06/02 07:19:12;;;;;;;9.10;5.40;;;;;;;20.77;nan;100214.97;5056380;28;20032;-72
2023/06/02 07:21:37;;;;;;;8.57;5.60;;;;;;;20.89;nan;100206.44;5046502;28;20036;-73
2023/06/02 07:24:03;;;;;;;10.88;5.95;;;;;;;20.96;nan;100226.34;5054909;28;20037;-71
2023/06/02 07:26:28;;;;;;;7.30;5.28;;;;;;;21.16;nan;100227.03;5056397;28;20518;-72
2023/06/02 07:28:53;;;;;;;7.10;5.40;;;;;;;;;;5057859;28;20044;-71
2023/06/02 07:31:19;;;;;;;7.13;5.28;;;;;;;21.28;nan;100154.19;5057310;28;20031;-72
2023/06/02 07:33:45;;;;;;;9.32;6.15;;;;;;;;;;5058710;28;20052;-72
2023/06/02 07:36:11;;;;;;;10.68;6.10;;;;;;;21.39;nan;100211.81;5056695;28;20029;-72
2023/06/02 07:38:36;;;;;;;7.50;5.50;;;;;;;21.46;nan;100209.53;5041850;28;20114;-72
2023/06/02 07:41:02;;;;;;;10.23;5.70;;;;;;;21.51;nan;100264.91;5055474;28;20490;-72
2023/06/02 07:43:27;;;;;;;9.13;5.10;;;;;;;21.57;nan;100226.16;5053243;28;20027;-72
2023/06/02 07:45:53;;;;;;;8.55;5.40;;;;;;;21.60;nan;100217.53;5039497;28;20028;-73
2023/06/02 07:48:18;;;;;;;9.15;5.50;;;;;;;21.65;nan;100220.88;5054942;28;20474;-72
2023/06/02 07:50:44;;;;;;;7.32;4.90;;;;;;;21.67;nan;100167.78;5053668;28;20123;-73
2023/06/02 07:53:09;;;;;;;8.05;5.45;;;;;;;21.76;nan;100205.34;5057512;28;20056;-71
2023/06/02 07:55:34;;;;;;;6.75;5.00;;;;;;;21.81;nan;100221.34;5058008;28;20038;-72
2023/06/02 07:58:00;;;;;;;7.20;5.68;;;;;;;21.84;nan;100223.41;5055212;28;20053;-72
2023/06/02 08:00:25;;;;;;;8.35;5.50;;;;;;;21.96;nan;100222.06;5055707;28;20028;-72
2023/06/02 08:02:51;;;;;;;7.03;4.90;;;;;;;21.98;nan;100214.47;5055380;28;20081;-72
2023/06/02 08:05:17;;;;;;;8.30;4.80;;;;;;;22.04;nan;100205.22;5056739;28;20538;-72
2023/06/02 08:07:43;;;;;;;8.63;5.85;;;;;;;22.11;nan;100200.22;5057750;28;20032;-72
2023/06/02 08:10:09;;;;;;;8.18;5.50;;;;;;;;;;5060794;28;20024;-72
2023/06/02 08:12:35;;;;;;;9.65;4.68;;;;;;;22.20;nan;100206.47;5057600;28;20168;-73
2023/06/02 08:15:01;;;;;;;7.47;4.80;;;;;;;22.20;nan;100192.22;5043630;28;20086;-72
2023/06/02 08:17:29;;;;;;;8.40;4.97;;;;;;;22.27;nan;100214.84;5061187;28;20036;-72
2023/06/02 08:20:03;;;;;;;8.90;5.72;;;;;;;22.33;nan;100214.72;5048670;28;20044;-72
2023/06/02 08:22:30;;;;;;;8.75;5.47;;;;;;;22.32;nan;100261.44;5060224;28;20020;-72
2023/06/02 08:24:56;;;;;;;6.00;4.75;;;;;;;22.44;nan;100218.72;5060143;28;20077;-72
2023/06/02 08:27:22;;;;;;;10.82;5.07;;;;;;;;;;5057516;28;20064;-73
2023/06/02 08:29:51;;;;;;;10.80;5.18;;;;;;;22.60;nan;100208.38;5044390;28;20479;-72
2023/06/02 08:32:22;;;;;;;8.43;4.90;;;;;;;22.63;nan;100184.41;5059263;28;20028;-72
2023/06/02 08:34:50;;;;;;;8.68;5.82;;;;;;;22.75;nan;100202.59;5043025;28;20513;-72
2023/06/02 08:37:16;;;;;;;8.45;5.68;;;;;;;22.77;nan;100196.88;5061118;28;20107;-72
2023/06/02 08:39:46;;;;;;;6.63;5.20;;;;;;;22.89;nan;100202.44;5061316;28;20025;-72
2023/06/02 08:42:13;;;;;;;8.52;5.78;;;;;;;22.89;nan;100208.63;5040767;28;20035;-73
2023/06/02 08:44:40;;;;;;;11.85;5.35;;;;;;;22.94;nan;100246.06;5061921;28;20039;-72
2023/06/02 08:47:08;;;;;;;10.75;5.68;;;;;;;23.01;nan;100170.47;5059375;28;20036;-72
2023/06/02 08:49:35;;;;;;;12.02;5.68;;;;;;;23.08;nan;100184.22;5060288;28;20029;-71
2023/06/02 08:52:05;;;;;;;7.15;5.35;;;;;;;23.18;nan;100185.81;5057695;28;20493;-75
2023/06/02 08:54:31;;;;;;;8.30;5.18;;;;;;;23.20;nan;100188.97;5042571;28;20061;-76
2023/06/02 08:56:57;;;;;;;7.28;5.43;;;;;;;23.25;nan;100196.06;5063263;28;20072;-74
2023/06/02 08:59:24;;;;;;;8.35;4.68;;;;;;;23.33;nan;100239.06;5058620;28;20028;-74
2023/06/02 09:01:50;;;;;;;7.30;5.28;;;;;;;23.34;nan;100111.69;5057202;28;20031;-75
2023/06/02 09:04:16;;;;;;;8.55;5.20;;;;;;;23.36;nan;100167.78;5060383;28;20032;-75
2023/06/02 09:06:43;;;;;;;9.63;5.60;;;;;;;23.44;nan;100332.81;5059617;28;20029;-74
2023/06/02 09:09:09;;;;;;;6.20;5.35;;;;;;;23.51;nan;100163.81;5059905;28;20032;-75
2023/06/02 09:11:35;;;;;;;10.90;4.97;;;;;;;23.58;nan;100180.25;5061135;28;20375;-74
2023/06/02 09:14:00;;;;;;;7.45;5.05;;;;;;;;;;5041043;28;20063;-74
2023/06/02 09:16:40;;;;;;;10.50;5.80;;;;;;;23.66;nan;100159.88;5042104;28;20029;-74
2023/06/02 09:19:06;;;;;;;8.88;5.53;;;;;;;23.69;nan;100173.47;5054393;28;20036;-71
2023/06/02 09:21:35;;;;;;;7.43;5.28;;;;;;;23.71;nan;100176.63;5059039;28;20544;-75
2023/06/02 09:24:02;;;;;;;9.68;5.40;;;;;;;23.76;nan;100125.41;5059602;28;20032;-75
2023/06/02 09:26:30;;;;;;;6.65;5.22;;;;;;;23.76;nan;100156.88;5057706;28;20081;-75
2023/06/02 09:29:11;;;;;;;7.30;5.22;;;;;;;23.86;nan;100124.28;5044022;28;20179;-75
2023/06/02 09:31:46;;;;;;;8.15;5.32;;;;;;;23.88;nan;100154.31;5049660;28;20032;-75
2023/06/02 09:34:13;;;;;;;6.75;5.47;;;;;;;23.87;nan;100149.25;5057351;28;20027;-75
2023/06/02 09:36:39;;;;;;;8.30;5.30;;;;;;;23.84;nan;100185.66;5057396;28;20033;-75
2023/06/02 09:39:06;;;;;;;8.68;5.47;;;;;;;23.90;nan;100124.44;5057660;28;20051;-75
2023/06/02 09:41:31;;;;;;;10.25;5.72;;;;;;;23.96;nan;100137.38;5056744;28;20040;-75
2023/06/02 09:43:57;;;;;;;10.10;5.68;;;;;;;24.01;nan;100122.94;5042692;28;20033;-74
2023/06/02 09:46:23;;;;;;;8.35;5.25;;;;;;;24.10;nan;100139.84;5059568;28;20482;-74
2023/06/02 09:48:56;;;;;;;7.13;5.60;;;;;;;24.18;nan;100130.97;5059433;28;20020;-72
2023/06/02 09:51:23;;;;;;;8.93;5.40;;;;;;;24.26;nan;100126.66;5060595;28;20028;-72
2023/06/02 09:53:49;;;;;;;7.60;5.00;;;;;;;24.30;nan;100138.38;5055077;28;20021;-73
2023/06/02 09:56:15;;;;;;;10.40;5.95;;;;;;;24.31;nan;100161.47;5060405;28;20045;-73
2023/06/02 09:58:41;;;;;;;6.93;4.57;;;;;;;24.26;nan;100118.59;5058741;28;20111;-72
2023/06/02 10:01:06;;;;;;;7.03;5.22;;;;;;;24.38;nan;100129.47;5057266;28;20033;-76
2023/06/02 10:03:32;;;;;;;8.43;5.35;;;;;;;;;;5045460;28;20024;-76
2023/06/02 10:06:13;;;;;;;6.77;4.83;;;;;;;24.36;nan;100094.00;5056702;28;20024;-75
2023/06/02 10:08:50;;;;;;;7.93;5.43;;;;;;;24.44;nan;100121.97;5046877;28;20066;-74
2023/06/02 10:11:40;;;;;;;7.25;5.57;;;;;;;24.50;nan;100098.41;5060892;28;20032;-74
2023/06/02 10:14:20;;;;;;;8.20;5.35;;;;;;;24.58;nan;100111.00;5057748;28;20059;-74
2023/06/02 10:16:58;;;;;;;7.72;5.15;;;;;;;24.66;nan;100112.84;5056393;28;20085;-73
2023/06/02 10:20:08;;;;;;;6.23;4.80;;;;;;;24.72;nan;100116.16;5057298;28;20118;-74
2023/06/02 10:22:52;;;;;;;9.00;5.28;;;;;;;24.81;nan;100112.28;5055290;28;20319;-75
2023/06/02 10:25:23;;;;;;;6.63;4.45;;;;;;;24.85;nan;100107.03;5047274;28;20032;-75
2023/06/02 10:27:49;;;;;;;8.02;5.30;;;;;;;24.91;nan;100116.50;5056285;28;20036;-75
2023/06/02 10:30:21;;;;;;;7.75;4.72;;;;;;;25.00;nan;100076.81;5044234;28;20028;-75
2023/06/02 10:32:49;;;;;;;11.25;5.05;;;;;;;25.03;nan;100075.38;5040570;28;20096;-73
2023/06/02 10:35:15;;;;;;;7.43;4.85;;;;;;;25.01;nan;100110.72;5058329;28;20029;-73
2023/06/02 10:37:41;;;;;;;7.28;5.32;;;;;;;25.08;nan;100088.63;5057988;28;20017;-72
2023/06/02 10:40:10;;;;;;;5.72;4.47;;;;;;;25.13;nan;100080.34;5057751;28;20081;-71
2023/06/02 10:42:37;;;;;;;6.05;4.20;;;;;;;25.18;nan;100088.25;5039790;28;20083;-72
2023/06/02 10:45:32;;;;;;;5.18;4.38;;;;;;;25.28;nan;100095.13;5059294;28;20039;-72
2023/06/02 10:47:57;;;;;;;8.63;4.82;;;;;;;25.32;nan;100097.97;5040149;28;20402;-70
2023/06/02 10:50:23;;;;;;;7.63;4.85;;;;;;;25.37;nan;100081.59;5056717;28;20021;-70
2023/06/02 10:53:00;;;;;;;6.75;4.35;;;;;;;25.49;nan;100056.56;5059204;28;20035;-69
2023/06/02 10:55:30;;;;;;;7.78;4.60;;;;;;;25.54;nan;100065.22;5040817;28;20028;-70
2023/06/02 10:58:01;;;;;;;9.25;4.72;;;;;;;25.58;nan;100044.56;5042270;28;20519;-69
2023/06/02 11:00:32;;;;;;;7.38;4.43;;;;;;;25.66;nan;100054.47;5045344;28;20495;-70
2023/06/02 11:03:02;;;;;;;9.77;4.30;;;;;;;25.65;nan;100052.91;5056813;28;20032;-70
2023/06/02 11:05:30;;;;;;;7.97;4.30;;;;;;;25.68;nan;99984.81;5055092;28;20057;-73
2023/06/02 11:08:22;;;;;;;7.05;4.82;;;;;;;25.72;nan;100041.56;5057979;28;20036;-72
2023/06/02 11:10:56;;;;;;;7.75;4.45;;;;;;;25.73;nan;100035.03;5043101;28;20047;-73
2023/06/02 11:13:23;;;;;;;8.40;4.80;;;;;;;25.82;nan;100022.25;5057391;28;20032;-73
2023/06/02 11:15:55;;;;;;;13.50;5.20;;;;;;;25.92;nan;100031.03;5056934;28;20032;-72
2023/06/02 11:20:57;;;;;;;6.60;4.43;;;;;;;26.06;nan;100023.41;5055575;28;20037;-72
2023/06/02 11:23:23;;;;;;;5.28;4.30;;;;;;;;;;5053003;28;20013;-72
2023/06/02 11:26:05;;;;;;;11.95;4.63;;;;;;;26.15;nan;100059.16;5054941;28;20035;-72
2023/06/02 11:28:31;;;;;;;6.40;4.40;;;;;;;26.21;nan;99962.53;5040425;28;20041;-72
2023/06/02 11:31:13;;;;;;;7.25;4.53;;;;;;;26.33;nan;100024.59;5056551;28;20036;-72
2023/06/02 11:33:48;;;;;;;6.65;4.47;;;;;;;26.33;nan;100051.59;5053158;28;20520;-72
2023/06/02 11:36:14;;;;;;;7.63;4.97;;;;;;;26.47;nan;100026.94;5060026;28;20024;-70
2023/06/02 11:38:40;;;;;;;10.60;4.70;;;;;;;26.49;nan;100036.25;5058125;28;20025;-71
2023/06/02 11:41:09;;;;;;;6.57;4.65;;;;;;;26.56;nan;100048.44;5058406;28;20033;-72
2023/06/02 11:43:35;;;;;;;6.55;4.47;;;;;;;26.62;nan;100041.66;5060815;28;20032;-71
2023/06/02 11:46:11;;;;;;;7.30;4.13;;;;;;;26.67;nan;100031.44;5055517;28;20115;-72
2023/06/02 11:48:38;;;;;;;6.05;4.05;;;;;;;26.71;nan;100018.78;5054745;28;20103;-71
2023/06/02 11:51:08;;;;;;;6.60;4.45;;;;;;;26.73;nan;100038.16;5055656;28;20027;-72
2023/06/02 11:53:37;;;;;;;7.88;4.30;;;;;;;26.65;nan;100030.16;5053582;28;20033;-71